• Join FlightAware (Why Join?)
  • Login
  • US Flag 
04:51AM EDT


 

Airport Tracker/Info


-or-


 

Live Flight TrackerFlight Track Log ✈ UAL3756 ✈ 07-Dec-2013 ✈ KORD - KMHT

Flight Track Log - Related Links

Times and Time Zones

All times are in EST time to prevent confusion due to time zone crossing. See the UAL3756 flight status page for this flight to view local times or setup timezone preferences in your user account.

Time Position Orientation Groundspeed Altitude Reporting Facility
EST Latitude Longitude Course Direction KTS MPH feet Rate Location/Type
08:49PM 42.0333 -87.9167 90° East 223 257 3,300  Level Chicago TRACON
08:51PM 42.1264 -87.8372 32° Northeast 243 280 5,900 1,860 Climbing Chicago Center
08:52PM 42.1642 -87.7297 65° Northeast 279 321 8,600 2,580 Climbing Chicago Center
08:53PM 42.1847 -87.6153 76° East 304 350 11,200 1,680 Climbing Chicago Center
08:54PM 42.0895 -87.0443 90° East  Level Estimated
08:54PM 42.2081 -87.4908 76° East 331 381 12,100  Level Chicago Center
08:55PM 42.2311 -87.3439 78° East 383 441 14,000 1,620 Climbing Chicago Center
08:56PM 42.2589 -87.1922 76° East 406 467 15,500 1,560 Climbing Chicago Center
08:57PM 42.2836 -87.0342 78° East 421 484 17,200 1,260 Climbing Chicago Center
08:58PM 42.2872 -86.8631 88° East 444 511 18,100 1,140 Climbing Chicago Center
08:59PM 42.2950 -86.6756 87° East 463 533 19,600 1,320 Climbing Chicago Center
09:00PM 42.3011 -86.5047 87° East 478 550 20,900 1,140 Climbing Chicago Center
09:01PM 42.3078 -86.3222 87° East 488 562 22,000 960 Climbing Chicago Center
09:02PM 42.3139 -86.1314 87° East 507 583 22,900 900 Climbing Chicago Center
09:03PM 42.3147 -85.9358 90° East 521 600 23,900 1,080 Climbing Chicago Center
09:04PM 42.3108 -85.6961 91° East 534 615 25,100 960 Climbing Chicago Center
09:05PM 42.3103 -85.4914 90° East 545 627 25,900 780 Climbing Chicago Center
09:06PM 42.3236 -85.2814 85° East 561 646 26,800 780 Climbing Chicago Center
09:07PM 42.3353 -85.0717 86° East 563 648 27,600 660 Climbing Chicago Center
09:08PM 42.3464 -84.8581 86° East 569 655 28,200 540 Climbing Chicago Center
09:09PM 42.3575 -84.6428 86° East 575 662 28,700 540 Climbing Chicago Center
09:10PM 42.3681 -84.4222 86° East 584 672 29,300 600 Climbing Chicago Center
09:11PM 42.3758 -84.2211 87° East 591 680 29,900 480 Climbing Cleveland Center
09:12PM 42.3858 -83.9981 86° East 595 685 30,300 420 Climbing Cleveland Center
09:13PM 42.3961 -83.7722 86° East 599 689 30,800 780 Climbing Cleveland Center
09:14PM 42.4042 -83.5194 87° East 593 682 32,000 780 Climbing Cleveland Center
09:15PM 42.4136 -83.2947 87° East 593 682 32,500 480 Climbing Cleveland Center
09:16PM 42.4214 -83.0883 87° East 597 687 33,000 660 Climbing Cleveland Center
09:17PM 42.4283 -82.8636 88° East 598 688 33,900 780 Climbing Cleveland Center
09:18PM 42.4356 -82.6397 87° East 597 687 34,700 540 Climbing Cleveland Center
09:19PM 42.4422 -82.4147 88° East 599 689 35,000 120 Climbing Cleveland Center
09:20PM 42.4481 -82.1825 88° East 613 705 35,000  Level Cleveland Center
09:21PM 42.4547 -81.9092 88° East 629 724 35,000  Level Cleveland Center
09:22PM 42.4608 -81.6653 88° East 637 733 35,000  Level Cleveland Center
09:23PM 42.4664 -81.4267 88° East 631 726 35,000  Level Cleveland Center
09:24PM 42.4703 -81.1878 89° East 628 723 35,000  Level Cleveland Center
09:25PM 42.4750 -80.9497 88° East 627 722 35,000  Level Cleveland Center
09:26PM 42.4789 -80.7094 89° East 630 725 35,000  Level Cleveland Center
09:27PM 42.4828 -80.4725 89° East 627 722 35,000  Level Cleveland Center
09:28PM 42.4853 -80.2314 89° East 634 730 35,000  Level Cleveland Center
09:29PM 42.4878 -79.9906 89° East 633 728 35,000  Level Cleveland Center
09:30PM 42.4881 -79.7422 90° East 634 730 35,000  Level Cleveland Center
09:31PM 42.4897 -79.5017 89° East 640 736 35,000  Level Cleveland Center
09:32PM 42.4906 -79.2631 90° East 637 733 35,000  Level Cleveland Center
09:33PM 42.5058 -79.0258 85° East 633 728 35,000  Level Cleveland Center
09:34PM 42.5225 -78.7867 85° East 638 734 35,000  Level Cleveland Center
09:35PM 42.5389 -78.5486 85° East 636 732 35,000  Level Cleveland Center
09:36PM 42.5553 -78.3147 84° East 630 725 35,000  Level Cleveland Center
09:37PM 42.5689 -78.0758 85° East 634 730 35,000  Level Cleveland Center
09:38PM 42.5831 -77.8403 85° East 634 730 35,000  Level Cleveland Center
09:39PM 42.5975 -77.6014 85° East 634 730 35,000  Level Cleveland Center
09:40PM 42.6114 -77.3381 86° East 631 726 35,000  Level Cleveland Center
09:41PM 42.6236 -77.1011 86° East 631 726 35,000  Level Cleveland Center
09:42PM 42.6339 -76.9128 86° East 630 725 35,000  Level Boston Center
09:43PM 42.6458 -76.6758 86° East 631 726 35,000  Level Boston Center
09:44PM 42.6575 -76.4386 86° East 630 725 35,000  Level Boston Center
09:45PM 42.6686 -76.1825 87° East 634 730 35,000  Level Boston Center
09:46PM 42.6794 -75.9461 86° East 633 728 35,000 -60 Level Boston Center
09:47PM 42.6889 -75.7100 87° East 633 728 34,900 -660 Descending Boston Center
09:48PM 42.6981 -75.4739 87° East 633 728 33,700 -1,440 Descending Boston Center
09:49PM 42.7064 -75.2453 87° East 617 710 32,100 -1,560 Descending Boston Center
09:50PM 42.7139 -75.0208 87° East 604 695 30,700 -1,500 Descending Boston Center
09:51PM 42.7206 -74.8075 87° East 577 664 29,200 -840 Descending Boston Center
09:52PM 42.7286 -74.5553 87° East 564 649 29,000 -240 Descending Boston Center
09:53PM 42.7350 -74.3494 88° East 552 635 28,800 -360 Descending Boston Center
09:54PM 42.7411 -74.1439 88° East 549 632 28,300 -480 Descending Boston Center
09:56PM 42.7431 -73.9656 89° East 542 624 27,900 -480 Descending Boston Center
09:57PM 42.7486 -73.7592 88° East 544 626 27,400 -1,320 Descending Boston Center
09:58PM 42.7569 -73.5558 87° East 539 620 25,300 -2,340 Descending Boston Center
09:59PM 42.7642 -73.3581 87° East 524 603 22,700 -2,460 Descending Boston Center
10:00PM 42.7711 -73.1644 87° East 513 590 20,400 -2,160 Descending Boston Center
10:01PM 42.7764 -72.9750 88° East 499 574 18,400 -1,740 Descending Boston Center
10:02PM 42.7828 -72.7822 87° East 502 578 17,000 -1,620 Descending Boston Center
10:03PM 42.7875 -72.6017 88° East 477 549 15,200 -1,800 Descending Boston Center
10:04PM 42.7922 -72.4278 88° East 460 529 13,400 -1,740 Descending Boston Center
10:05PM 42.7986 -72.2386 87° East 433 498 11,800 -1,380 Descending Boston Center
10:06PM 42.8094 -72.1008 84° East 369 425 10,700 -1,080 Descending Boston Center
10:07PM 42.8178 -71.9828 84° East 315 362 9,700 -1,260 Descending Boston Center
10:08PM 42.8147 -71.8622 92° East 298 343 8,200 -1,380 Descending Boston Center
10:09PM 42.8078 -71.7508 95° East 296 341 6,900 -1,200 Descending Boston Center
10:10PM 42.8003 -71.6508 96° East 270 311 5,900 -1,020 Descending Boston Center
10:11PM 42.7936 -71.5575 96° East 252 290 4,900 -1,020 Descending Boston Center
10:12PM 42.7897 -71.4672 93° East 241 277 3,900 -960 Descending Boston Center
10:13PM 42.7961 -71.3861 84° East 215 247 3,000 -960 Descending Boston Center
10:14PM 42.8278 -71.3717 18° North 136 157 2,000 -660 Descending Boston Center
10:15PM 42.8619 -71.3911 337° Northwest 132 152 1,700 -600 Descending Boston Center
10:16PM 42.8992 -71.4128 337° Northwest 135 155 800 -780 Descending Boston Center
10:17PM 42.9294 -71.4325 335° Northwest 136 157 200 -600 Descending Boston Center